createdAt,value
2018-03-07T00:00:15.787Z,30.85
2018-03-07T00:02:44.088Z,32.75
2018-03-07T00:05:11.626Z,34.35
2018-03-07T00:07:39.111Z,33.38
2018-03-07T00:10:06.600Z,37.40
2018-03-07T00:12:34.057Z,39.17
2018-03-07T00:15:01.540Z,37.70
2018-03-07T00:17:28.997Z,40.10
2018-03-07T00:19:56.513Z,40.75
2018-03-07T00:22:24.014Z,41.63
2018-03-07T00:24:52.284Z,42.72
2018-03-07T00:27:19.734Z,42.95
2018-03-07T00:29:47.228Z,36.13
2018-03-07T00:32:14.768Z,36.28
2018-03-07T00:34:42.293Z,34.00
2018-03-07T00:37:09.776Z,39.42
2018-03-07T00:39:37.239Z,34.65
2018-03-07T00:42:04.735Z,32.47
2018-03-07T00:44:32.195Z,27.73
2018-03-07T00:46:59.695Z,37.40
2018-03-07T00:49:27.269Z,35.13
2018-03-07T00:51:54.750Z,38.15
2018-03-07T00:54:22.222Z,37.65
2018-03-07T00:56:49.697Z,34.28
2018-03-07T00:59:17.195Z,39.15
2018-03-07T01:01:44.703Z,33.22
2018-03-07T01:04:12.170Z,40.38
2018-03-07T01:06:39.631Z,34.72
2018-03-07T01:09:07.117Z,40.25
2018-03-07T01:11:34.593Z,39.75
2018-03-07T01:14:02.072Z,38.35
2018-03-07T01:16:29.533Z,42.53
2018-03-07T01:18:57.007Z,40.95
2018-03-07T01:21:24.547Z,39.40
2018-03-07T01:23:52.790Z,40.47
2018-03-07T01:26:20.266Z,39.85
2018-03-07T01:28:48.490Z,38.55
2018-03-07T01:31:15.975Z,36.90
2018-03-07T01:33:43.544Z,42.78
2018-03-07T01:36:11.094Z,38.88
2018-03-07T01:38:38.572Z,37.90
2018-03-07T01:41:06.828Z,39.65
2018-03-07T01:43:34.279Z,40.95
2018-03-07T01:46:01.742Z,40.08
2018-03-07T01:48:29.217Z,44.85
2018-03-07T01:50:57.469Z,40.97
2018-03-07T01:53:24.986Z,38.65
2018-03-07T01:55:52.602Z,40.12
2018-03-07T01:58:20.098Z,38.45
2018-03-07T02:00:48.394Z,34.22
2018-03-07T02:03:15.899Z,37.83
2018-03-07T02:05:43.377Z,38.92
2018-03-07T02:08:11.626Z,40.15
2018-03-07T02:10:39.090Z,40.12
2018-03-07T02:13:06.587Z,38.75
2018-03-07T02:15:34.050Z,41.83
2018-03-07T02:18:01.514Z,39.30
2018-03-07T02:20:29.007Z,41.55
2018-03-07T02:22:56.462Z,39.33
2018-03-07T02:25:23.952Z,40.45
2018-03-07T02:27:51.409Z,43.85
2018-03-07T02:30:19.653Z,44.50
2018-03-07T02:32:47.130Z,40.00
2018-03-07T02:35:14.615Z,39.72
2018-03-07T02:37:42.100Z,40.28
2018-03-07T02:40:09.563Z,41.72
2018-03-07T02:42:37.054Z,44.33
2018-03-07T02:45:04.519Z,50.40
2018-03-07T02:47:32.011Z,45.47
2018-03-07T02:49:59.484Z,47.83
2018-03-07T02:52:26.965Z,43.58
2018-03-07T02:54:54.449Z,41.25
2018-03-07T02:57:22.683Z,42.97
2018-03-07T02:59:50.178Z,39.50
2018-03-07T03:02:17.645Z,43.78
2018-03-07T03:04:45.131Z,44.00
2018-03-07T03:07:12.590Z,40.90
2018-03-07T03:09:40.142Z,43.33
2018-03-07T03:12:07.607Z,37.58
2018-03-07T03:14:35.085Z,41.35
2018-03-07T03:17:02.541Z,43.53
2018-03-07T03:19:30.091Z,43.55
2018-03-07T03:21:57.559Z,37.88
2018-03-07T03:24:25.058Z,40.53
2018-03-07T03:26:52.534Z,38.85
2018-03-07T03:29:21.054Z,44.33
2018-03-07T03:31:48.558Z,36.17
2018-03-07T03:34:16.787Z,35.38
2018-03-07T03:36:44.261Z,35.47
2018-03-07T03:39:11.841Z,32.28
2018-03-07T03:41:39.296Z,39.60
2018-03-07T03:44:06.805Z,32.28
2018-03-07T03:46:34.257Z,33.90
2018-03-07T03:49:01.777Z,31.00
2018-03-07T03:51:29.227Z,33.13
2018-03-07T03:53:56.730Z,35.53
2018-03-07T03:56:24.233Z,31.73
2018-03-07T03:58:51.704Z,32.03
2018-03-07T04:01:19.201Z,34.97
2018-03-07T04:03:47.440Z,30.35
2018-03-07T04:06:14.925Z,32.42
2018-03-07T04:08:43.181Z,34.53
2018-03-07T04:11:10.661Z,31.90
2018-03-07T04:13:38.921Z,30.85
2018-03-07T04:16:06.387Z,27.70
2018-03-07T04:18:34.634Z,31.62
2018-03-07T04:21:02.097Z,26.17
2018-03-07T04:23:29.603Z,24.42
2018-03-07T04:25:57.058Z,26.30
2018-03-07T04:28:24.590Z,29.45
2018-03-07T04:30:52.853Z,29.58
2018-03-07T04:33:20.316Z,32.72
2018-03-07T04:38:21.832Z,28.60
2018-03-07T04:40:49.398Z,34.47
2018-03-07T04:43:16.858Z,28.50
2018-03-07T04:45:44.347Z,27.27
2018-03-07T04:48:11.818Z,30.27
2018-03-07T04:50:39.298Z,23.85
2018-03-07T04:53:06.760Z,26.70
2018-03-07T04:55:35.011Z,29.55
2018-03-07T04:58:02.494Z,31.15
2018-03-07T05:00:29.982Z,30.80
2018-03-07T05:02:57.444Z,25.27
2018-03-07T05:05:25.359Z,30.35
2018-03-07T05:07:52.838Z,26.23
2018-03-07T05:10:20.329Z,25.40
2018-03-07T05:12:47.811Z,27.33
2018-03-07T05:15:15.269Z,21.23
2018-03-07T05:17:42.757Z,23.75
2018-03-07T05:20:11.027Z,24.80
2018-03-07T05:22:39.285Z,25.55
2018-03-07T05:25:06.740Z,30.55
2018-03-07T05:27:34.297Z,26.17
2018-03-07T05:30:01.816Z,19.85
2018-03-07T05:32:29.250Z,21.42
2018-03-07T05:34:57.492Z,21.05
2018-03-07T05:37:25.740Z,23.05
2018-03-07T05:39:53.266Z,24.10
2018-03-07T05:42:20.764Z,24.40
2018-03-07T05:44:48.214Z,18.80
2018-03-07T05:47:16.005Z,17.85
2018-03-07T05:49:43.482Z,20.70
2018-03-07T05:52:11.757Z,19.42
2018-03-07T05:54:39.990Z,19.30
2018-03-07T05:57:07.484Z,18.73
2018-03-07T05:59:34.931Z,19.42
2018-03-07T06:02:02.419Z,17.92
2018-03-07T06:04:30.668Z,18.52
2018-03-07T06:06:58.160Z,20.35
2018-03-07T06:09:26.398Z,17.73
2018-03-07T06:11:53.881Z,19.37
2018-03-07T06:14:22.148Z,18.30
2018-03-07T06:16:50.385Z,18.45
2018-03-07T06:19:17.855Z,20.02
2018-03-07T06:21:45.320Z,21.12
2018-03-07T06:24:12.820Z,17.12
2018-03-07T06:26:40.541Z,17.70
2018-03-07T06:29:08.043Z,16.73
2018-03-07T06:31:36.266Z,19.85
2018-03-07T06:34:03.776Z,18.77
2018-03-07T06:36:32.019Z,18.25
2018-03-07T06:38:59.491Z,20.05
2018-03-07T06:41:27.044Z,20.20
2018-03-07T06:43:54.501Z,17.15
2018-03-07T06:46:21.979Z,17.45
2018-03-07T06:48:50.213Z,16.62
2018-03-07T06:51:17.714Z,17.37
2018-03-07T06:53:45.953Z,15.48
2018-03-07T06:56:13.427Z,16.77
2018-03-07T06:58:40.884Z,17.50
2018-03-07T07:01:09.136Z,16.00
2018-03-07T07:03:36.617Z,16.08
2018-03-07T07:06:04.087Z,23.05
2018-03-07T07:08:32.341Z,15.75
2018-03-07T07:10:59.799Z,19.90
2018-03-07T07:13:27.267Z,17.73
2018-03-07T07:15:54.741Z,16.05
2018-03-07T07:18:23.008Z,19.30
2018-03-07T07:20:51.234Z,18.83
2018-03-07T07:23:19.815Z,18.08
2018-03-07T07:25:48.446Z,21.35
2018-03-07T07:28:15.904Z,21.42
2018-03-07T07:30:44.184Z,19.15
2018-03-07T07:33:11.632Z,17.02
2018-03-07T07:35:39.104Z,18.98
2018-03-07T07:38:06.572Z,20.70
2018-03-07T07:40:34.849Z,20.12
2018-03-07T07:43:03.081Z,19.30
2018-03-07T07:45:30.564Z,19.35
2018-03-07T07:47:58.038Z,20.15
2018-03-07T07:50:26.274Z,21.40
2018-03-07T07:52:53.771Z,20.10
2018-03-07T07:55:21.985Z,19.62
2018-03-07T07:57:49.474Z,21.40
2018-03-07T08:00:16.945Z,24.15
2018-03-07T08:02:44.438Z,23.17
2018-03-07T08:05:12.326Z,23.05
2018-03-07T08:07:39.841Z,26.75
2018-03-07T08:10:08.069Z,23.35
2018-03-07T08:12:35.572Z,24.87
2018-03-07T08:15:03.841Z,24.77
2018-03-07T08:17:31.342Z,24.95
2018-03-07T08:19:58.853Z,25.95
2018-03-07T08:22:26.318Z,26.90
2018-03-07T08:24:53.798Z,27.58
2018-03-07T08:27:21.280Z,24.42
2018-03-07T08:29:48.776Z,27.25
2018-03-07T08:32:16.243Z,26.15
2018-03-07T08:34:44.510Z,29.20
2018-03-07T08:37:11.964Z,29.08
2018-03-07T08:39:39.484Z,26.30
2018-03-07T08:42:06.965Z,26.42
2018-03-07T08:44:34.427Z,23.45
2018-03-07T08:47:01.938Z,24.30
2018-03-07T08:49:29.387Z,20.77
2018-03-07T08:51:56.905Z,18.75
2018-03-07T08:54:24.381Z,19.60
2018-03-07T08:56:52.654Z,16.77
2018-03-07T08:59:20.122Z,19.20
2018-03-07T09:01:48.385Z,18.37
2018-03-07T09:04:15.845Z,18.92
2018-03-07T09:06:43.313Z,21.17
2018-03-07T09:09:11.589Z,17.25
2018-03-07T09:11:39.054Z,18.65
2018-03-07T09:14:06.590Z,17.08
2018-03-07T09:16:34.154Z,16.23
2018-03-07T09:19:01.628Z,18.75
2018-03-07T09:21:29.911Z,18.62
2018-03-07T09:23:58.180Z,16.40
2018-03-07T09:26:25.650Z,17.20
2018-03-07T09:28:53.187Z,17.65
2018-03-07T09:31:20.632Z,15.02
2018-03-07T09:33:48.123Z,14.30
2018-03-07T09:36:15.918Z,13.70
2018-03-07T09:38:43.519Z,12.60
2018-03-07T09:41:11.001Z,10.70
2018-03-07T09:43:39.223Z,8.83
2018-03-07T09:46:06.703Z,8.60
2018-03-07T09:48:34.170Z,7.37
2018-03-07T09:51:01.670Z,7.37
2018-03-07T09:53:29.133Z,8.03
2018-03-07T09:55:56.646Z,6.57
2018-03-07T09:58:24.186Z,2.30
2018-03-07T10:00:51.670Z,4.53
2018-03-07T10:03:19.134Z,1.60
2018-03-07T10:05:46.607Z,1.10
2018-03-07T10:08:14.857Z,3.00
2018-03-07T10:10:42.330Z,1.87
2018-03-07T10:13:10.551Z,0.90
2018-03-07T10:15:38.140Z,1.00
2018-03-07T10:18:05.662Z,1.43
2018-03-07T10:20:33.162Z,0.80
2018-03-07T10:23:00.634Z,3.03
2018-03-07T10:25:28.119Z,0.70
2018-03-07T10:27:55.611Z,1.50
2018-03-07T10:30:23.089Z,0.90
2018-03-07T10:32:50.590Z,0.73
2018-03-07T10:35:18.067Z,0.70
2018-03-07T10:37:45.575Z,1.02
2018-03-07T10:40:13.037Z,0.87
2018-03-07T10:42:41.326Z,1.02
2018-03-07T10:45:09.555Z,0.80
2018-03-07T10:47:37.002Z,0.90
2018-03-07T10:50:04.491Z,0.75
2018-03-07T10:52:31.967Z,0.63
2018-03-07T10:54:59.470Z,0.93
2018-03-07T10:57:26.941Z,2.00
2018-03-07T10:59:54.430Z,1.17
2018-03-07T11:02:23.413Z,0.90
2018-03-07T11:04:50.944Z,0.63
2018-03-07T11:07:18.423Z,0.60
2018-03-07T11:09:45.903Z,0.57
2018-03-07T11:12:13.384Z,1.43
2018-03-07T11:14:41.619Z,0.70
2018-03-07T11:17:09.106Z,0.83
2018-03-07T11:19:37.341Z,0.70
2018-03-07T11:22:04.834Z,1.20
2018-03-07T11:24:33.056Z,0.80
2018-03-07T11:27:00.521Z,0.90
2018-03-07T11:29:27.990Z,1.30
2018-03-07T11:31:55.469Z,2.53
2018-03-07T11:34:23.056Z,0.70
2018-03-07T11:36:51.267Z,0.90
2018-03-07T11:39:18.798Z,2.03
2018-03-07T11:41:46.263Z,1.10
2018-03-07T11:44:13.745Z,0.80
2018-03-07T11:46:41.242Z,2.30
2018-03-07T11:49:08.736Z,2.10
2018-03-07T11:51:36.270Z,0.83
2018-03-07T11:54:03.763Z,1.50
2018-03-07T11:56:31.228Z,0.50
2018-03-07T11:58:58.739Z,1.07
2018-03-07T12:01:26.968Z,2.30
2018-03-07T12:03:54.482Z,0.93
2018-03-07T12:06:22.699Z,0.73
2018-03-07T12:08:50.161Z,0.50
2018-03-07T12:11:17.711Z,0.73
2018-03-07T12:13:45.217Z,0.50
2018-03-07T12:16:12.686Z,1.67
2018-03-07T12:18:40.938Z,1.47
2018-03-07T12:21:08.445Z,0.90
2018-03-07T12:23:35.950Z,0.67
2018-03-07T12:26:03.424Z,1.03
2018-03-07T12:28:30.930Z,0.87
2018-03-07T12:30:58.740Z,4.53
2018-03-07T12:33:27.004Z,2.30
2018-03-07T12:35:54.507Z,1.70
2018-03-07T12:38:22.759Z,1.07
2018-03-07T12:40:50.263Z,0.53
2018-03-07T12:43:17.725Z,1.60
2018-03-07T12:45:45.221Z,0.70
2018-03-07T12:48:12.684Z,1.73
2018-03-07T12:50:40.212Z,2.57
2018-03-07T12:53:07.701Z,1.77
2018-03-07T12:55:35.200Z,1.33
2018-03-07T12:58:02.699Z,1.27
2018-03-07T13:00:30.168Z,2.53
2018-03-07T13:02:57.674Z,0.60
2018-03-07T13:05:25.144Z,0.70
2018-03-07T13:07:52.648Z,0.93
2018-03-07T13:10:20.100Z,1.57
2018-03-07T13:12:47.602Z,1.40
2018-03-07T13:15:15.078Z,0.70
2018-03-07T13:17:42.544Z,3.43
2018-03-07T13:20:10.050Z,1.10
2018-03-07T13:22:37.533Z,1.27
2018-03-07T13:25:05.038Z,1.90
2018-03-07T13:27:32.524Z,0.60
2018-03-07T13:30:00.004Z,2.37
2018-03-07T13:32:27.485Z,1.07
2018-03-07T13:34:54.982Z,0.87
2018-03-07T13:37:22.474Z,3.63
2018-03-07T13:39:49.946Z,1.07
2018-03-07T13:42:17.446Z,1.40
2018-03-07T13:44:44.927Z,1.50
2018-03-07T13:47:12.439Z,1.60
2018-03-07T13:49:39.915Z,0.60
2018-03-07T13:52:07.459Z,1.23
2018-03-07T13:54:34.935Z,2.00
2018-03-07T13:57:02.399Z,1.60
2018-03-07T13:59:29.898Z,0.73
2018-03-07T14:01:58.214Z,1.33
2018-03-07T14:04:25.786Z,0.87
2018-03-07T14:06:54.067Z,0.80
2018-03-07T14:09:21.678Z,2.90
2018-03-07T14:11:49.894Z,1.93
2018-03-07T14:14:17.440Z,3.17
2018-03-07T14:16:44.914Z,1.23
2018-03-07T14:19:12.377Z,5.73
2018-03-07T14:21:39.893Z,1.80
2018-03-07T14:24:07.345Z,1.07
2018-03-07T14:26:34.888Z,1.27
2018-03-07T14:29:02.353Z,1.67
2018-03-07T14:31:30.667Z,3.97
2018-03-07T14:33:58.144Z,4.80
2018-03-07T14:36:25.602Z,2.40
2018-03-07T14:38:53.089Z,4.77
2018-03-07T14:41:20.590Z,2.77
2018-03-07T14:43:48.247Z,3.70
2018-03-07T14:46:15.753Z,3.77
2018-03-07T14:48:43.268Z,2.63
2018-03-07T14:51:10.736Z,5.73
2018-03-07T14:53:38.258Z,6.37
2018-03-07T14:56:05.748Z,2.83
2018-03-07T14:58:33.231Z,7.83
2018-03-07T15:01:00.758Z,2.28
2018-03-07T15:03:28.295Z,7.37
2018-03-07T15:05:56.589Z,2.60
2018-03-07T15:08:24.061Z,2.83
2018-03-07T15:10:51.563Z,3.17
2018-03-07T15:13:19.065Z,2.23
2018-03-07T15:15:46.577Z,3.77
2018-03-07T15:18:14.053Z,1.97
2018-03-07T15:20:42.316Z,2.27
2018-03-07T15:23:09.810Z,11.77
2018-03-07T15:25:37.306Z,3.27
2018-03-07T15:28:04.816Z,3.70
2018-03-07T15:30:32.340Z,3.30
2018-03-07T15:32:59.842Z,7.20
2018-03-07T15:35:27.322Z,9.20
2018-03-07T15:37:54.835Z,6.87
2018-03-07T15:40:23.079Z,5.87
2018-03-07T15:42:50.552Z,4.37
2018-03-07T15:45:18.062Z,3.27
2018-03-07T15:47:45.574Z,5.30
2018-03-07T15:50:13.112Z,7.43
2018-03-07T15:52:40.576Z,3.10
2018-03-07T15:55:08.074Z,8.87
2018-03-07T15:57:36.369Z,6.80
2018-03-07T16:00:03.806Z,4.23
2018-03-07T16:02:32.069Z,2.43
2018-03-07T16:04:59.530Z,4.00
2018-03-07T16:07:27.807Z,6.23
2018-03-07T16:09:56.114Z,2.97
2018-03-07T16:12:23.628Z,4.23
2018-03-07T16:14:51.130Z,5.10
2018-03-07T16:17:18.616Z,3.67
2018-03-07T16:22:20.708Z,2.73
2018-03-07T16:24:48.217Z,6.67
2018-03-07T16:27:15.784Z,3.43
2018-03-07T16:29:43.271Z,2.93
2018-03-07T16:32:10.768Z,5.03
2018-03-07T16:34:39.050Z,3.20
2018-03-07T16:37:07.314Z,2.92
2018-03-07T16:39:34.840Z,3.53
2018-03-07T16:42:02.350Z,2.60
2018-03-07T16:44:30.625Z,3.10
2018-03-07T16:46:58.170Z,10.65
2018-03-07T16:49:25.720Z,4.82
2018-03-07T16:51:53.239Z,6.60
2018-03-07T16:54:20.820Z,9.52
2018-03-07T16:56:48.290Z,3.87
2018-03-07T16:59:15.843Z,3.03
2018-03-07T17:01:43.318Z,5.15
2018-03-07T17:04:10.835Z,4.12
2018-03-07T17:06:38.329Z,2.10
2018-03-07T17:09:05.816Z,2.83
2018-03-07T17:11:34.135Z,3.50
2018-03-07T17:14:01.694Z,3.78
2018-03-07T17:16:29.189Z,3.30
2018-03-07T17:18:56.666Z,4.30
2018-03-07T17:21:24.140Z,6.82
2018-03-07T17:23:51.615Z,4.00
2018-03-07T17:26:19.119Z,5.70
2018-03-07T17:28:46.598Z,8.25
2018-03-07T17:31:14.072Z,8.60
2018-03-07T17:33:41.567Z,4.25
2018-03-07T17:36:09.059Z,6.53
2018-03-07T17:38:36.564Z,3.53
2018-03-07T17:41:04.045Z,22.95
2018-03-07T17:43:31.535Z,4.55
2018-03-07T17:45:59.002Z,26.33
2018-03-07T17:48:26.530Z,10.52
2018-03-07T17:50:54.011Z,6.12
2018-03-07T17:53:21.569Z,3.20
2018-03-07T17:55:49.088Z,3.97
2018-03-07T17:58:16.556Z,6.35
2018-03-07T18:00:44.114Z,5.05
2018-03-07T18:03:11.917Z,2.28
2018-03-07T18:05:39.925Z,3.53
2018-03-07T18:08:07.410Z,2.58
2018-03-07T18:10:34.926Z,1.67
2018-03-07T18:13:02.473Z,2.00
2018-03-07T18:15:30.739Z,3.22
2018-03-07T18:17:58.251Z,2.87
2018-03-07T18:20:25.733Z,3.17
2018-03-07T18:22:53.279Z,3.90
2018-03-07T18:25:20.791Z,3.30
2018-03-07T18:27:49.075Z,3.40
2018-03-07T18:30:17.310Z,3.75
2018-03-07T18:32:44.851Z,3.47
2018-03-07T18:35:12.329Z,2.90
2018-03-07T18:37:39.816Z,3.28
2018-03-07T18:40:08.080Z,7.95
2018-03-07T18:42:36.314Z,4.47
2018-03-07T18:45:03.824Z,2.50
2018-03-07T18:47:32.082Z,5.80
2018-03-07T18:49:59.578Z,4.47
2018-03-07T18:52:27.413Z,3.75
2018-03-07T18:54:55.650Z,7.90
2018-03-07T18:57:23.144Z,3.78
2018-03-07T18:59:51.413Z,3.90
2018-03-07T19:02:18.945Z,9.13
2018-03-07T19:04:46.445Z,11.45
2018-03-07T19:07:14.733Z,4.82
2018-03-07T19:09:42.237Z,5.35
2018-03-07T19:12:09.704Z,7.97
2018-03-07T19:14:37.220Z,4.00
2018-03-07T19:17:05.536Z,4.43
2018-03-07T19:19:33.040Z,2.78
2018-03-07T19:22:01.364Z,2.60
2018-03-07T19:24:28.842Z,3.12
2018-03-07T19:26:56.304Z,6.07
2018-03-07T19:29:23.864Z,3.72
2018-03-07T19:31:51.516Z,17.65
2018-03-07T19:34:19.042Z,12.37
2018-03-07T19:36:46.551Z,6.00
2018-03-07T19:39:14.784Z,5.35
2018-03-07T19:41:42.375Z,3.00
2018-03-07T19:44:09.844Z,7.15
2018-03-07T19:46:37.360Z,7.20
2018-03-07T19:49:04.850Z,6.70
2018-03-07T19:51:32.364Z,6.07
2018-03-07T19:53:59.866Z,3.60
2018-03-07T19:56:27.337Z,3.00
2018-03-07T19:58:55.796Z,2.15
2018-03-07T20:01:23.330Z,6.12
2018-03-07T20:03:50.837Z,3.28
2018-03-07T20:06:18.317Z,5.45
2018-03-07T20:08:46.602Z,6.50
2018-03-07T20:11:14.105Z,9.35
2018-03-07T20:13:41.645Z,2.55
2018-03-07T20:16:09.148Z,6.80
2018-03-07T20:18:37.786Z,3.40
2018-03-07T20:21:05.248Z,2.45
2018-03-07T20:23:32.805Z,2.20
2018-03-07T20:26:00.332Z,3.65
2018-03-07T20:28:28.581Z,1.92
2018-03-07T20:30:56.090Z,2.53
2018-03-07T20:33:25.321Z,5.20
2018-03-07T20:35:52.841Z,2.78
2018-03-07T20:38:20.303Z,2.00
2018-03-07T20:40:47.795Z,5.32
2018-03-07T20:43:15.320Z,5.53
2018-03-07T20:45:42.796Z,4.90
2018-03-07T20:48:10.352Z,9.95
2018-03-07T20:50:37.837Z,6.70
2018-03-07T20:53:05.368Z,2.87
2018-03-07T20:55:32.832Z,3.25
2018-03-07T20:58:00.355Z,3.65
2018-03-07T21:00:27.878Z,3.12
2018-03-07T21:02:55.347Z,2.75
2018-03-07T21:05:23.662Z,3.37
2018-03-07T21:07:51.196Z,3.67
2018-03-07T21:10:19.484Z,4.40
2018-03-07T21:12:47.776Z,6.65
2018-03-07T21:15:15.304Z,4.20
2018-03-07T21:17:43.577Z,3.62
2018-03-07T21:20:11.856Z,4.32
2018-03-07T21:22:40.100Z,4.40
2018-03-07T21:25:07.638Z,3.28
2018-03-07T21:27:35.151Z,4.47
2018-03-07T21:30:03.439Z,3.85
2018-03-07T21:32:31.022Z,6.68
2018-03-07T21:34:58.511Z,4.03
2018-03-07T21:37:27.329Z,3.37
2018-03-07T21:39:54.848Z,4.05
2018-03-07T21:42:22.356Z,5.62
2018-03-07T21:44:50.629Z,3.67
2018-03-07T21:47:18.901Z,4.35
2018-03-07T21:49:46.447Z,4.53
2018-03-07T21:52:13.920Z,3.95
2018-03-07T21:54:42.190Z,3.83
2018-03-07T21:57:10.428Z,4.10
2018-03-07T21:59:37.954Z,4.60
2018-03-07T22:02:05.406Z,5.82
2018-03-07T22:04:32.915Z,5.82
2018-03-07T22:07:00.602Z,5.05
2018-03-07T22:09:28.128Z,6.18
2018-03-07T22:11:55.706Z,4.65
2018-03-07T22:14:23.173Z,6.00
2018-03-07T22:16:50.669Z,7.30
2018-03-07T22:19:18.165Z,5.82
2018-03-07T22:21:45.642Z,6.57
2018-03-07T22:24:13.129Z,7.45
2018-03-07T22:26:40.712Z,6.47
2018-03-07T22:29:08.271Z,5.45
2018-03-07T22:31:35.742Z,8.57
2018-03-07T22:34:03.334Z,6.05
2018-03-07T22:36:30.888Z,6.32
2018-03-07T22:38:58.370Z,6.22
2018-03-07T22:41:26.620Z,6.25
2018-03-07T22:43:54.106Z,8.07
2018-03-07T22:46:22.380Z,6.65
2018-03-07T22:48:49.863Z,6.55
2018-03-07T22:51:17.365Z,6.75
2018-03-07T22:53:44.834Z,5.80
2018-03-07T22:56:12.446Z,6.37
2018-03-07T22:58:39.898Z,6.55
2018-03-07T23:01:07.419Z,5.57
2018-03-07T23:03:34.879Z,6.57
2018-03-07T23:06:02.352Z,5.18
2018-03-07T23:08:30.608Z,5.55
2018-03-07T23:10:58.089Z,5.07
2018-03-07T23:13:26.343Z,8.00
2018-03-07T23:15:53.810Z,5.15
2018-03-07T23:18:21.303Z,5.35
2018-03-07T23:20:48.818Z,4.90
2018-03-07T23:23:16.279Z,5.00
2018-03-07T23:25:43.782Z,4.75
2018-03-07T23:28:11.249Z,4.80
2018-03-07T23:30:38.759Z,3.70
2018-03-07T23:33:07.718Z,5.78
2018-03-07T23:35:35.213Z,6.80
2018-03-07T23:38:02.657Z,3.55
2018-03-07T23:40:30.138Z,5.53
2018-03-07T23:42:58.937Z,6.40
2018-03-07T23:45:27.190Z,7.85
2018-03-07T23:47:55.412Z,5.50
2018-03-07T23:50:22.915Z,5.12
2018-03-07T23:52:50.372Z,4.60
2018-03-07T23:55:17.821Z,6.50
2018-03-07T23:57:45.339Z,7.80
